Time;durP1;ratioP1;P1;durP2;ratioP2;P2;SDS_P1;SDS_P2;PMS_P1;PMS_P2;Temp;Humidity;BMP_temperature;BMP_pressure;BME280_temperature;BME280_humidity;BME280_pressure;Samples;Min_cycle;Max_cycle;Signal;HPM_P1;HPM_P2
2024/03/02 00:00:29;;;;;;;2.30;1.98;;;9.70;90.70;;;;;;2078420;28;20041;-67
2024/03/02 00:01:30;;;;;;;1.77;1.67;;;9.70;90.70;;;;;;2077017;28;20028;-67
2024/03/02 00:02:30;;;;;;;2.33;1.80;;;9.70;90.70;;;;;;2084831;28;20473;-68
2024/03/02 00:03:34;;;;;;;1.95;1.75;;;9.70;90.70;;;;;;2088371;28;20021;-67
2024/03/02 00:04:38;;;;;;;2.45;2.00;;;9.70;90.70;;;;;;2084293;28;20057;-67
2024/03/02 00:05:39;;;;;;;2.28;1.77;;;9.70;90.70;;;;;;2084281;28;20040;-68
2024/03/02 00:06:45;;;;;;;2.67;2.10;;;9.70;90.70;;;;;;2082968;28;20613;-68
2024/03/02 00:07:52;;;;;;;2.35;1.60;;;9.70;90.70;;;;;;2084308;28;20033;-68
2024/03/02 00:08:57;;;;;;;3.33;1.70;;;9.70;90.80;;;;;;2085498;28;20021;-67
2024/03/02 00:09:58;;;;;;;1.80;1.70;;;9.70;90.90;;;;;;2076551;28;20022;-68
2024/03/02 00:11:00;;;;;;;2.30;1.80;;;9.70;90.80;;;;;;2070463;28;20029;-67
2024/03/02 00:12:05;;;;;;;2.22;1.58;;;9.70;90.80;;;;;;2079091;28;20038;-68
2024/03/02 00:13:12;;;;;;;2.22;1.60;;;9.80;90.80;;;;;;2085113;28;20026;-68
2024/03/02 00:14:13;;;;;;;2.78;2.05;;;9.70;90.80;;;;;;2084133;28;20052;-68
2024/03/02 00:15:41;;;;;;;2.78;1.80;;;9.70;90.80;;;;;;2081176;28;20498;-67
2024/03/02 00:16:41;;;;;;;2.60;1.73;;;9.70;91.00;;;;;;2083712;28;20032;-67
2024/03/02 00:17:42;;;;;;;1.92;1.80;;;9.70;90.90;;;;;;2083231;28;20030;-68
2024/03/02 00:18:43;;;;;;;1.75;1.55;;;9.70;90.90;;;;;;2085517;28;20026;-67
2024/03/02 00:19:43;;;;;;;1.70;1.60;;;9.70;90.90;;;;;;2084671;28;20068;-68
2024/03/02 00:20:45;;;;;;;1.73;1.63;;;9.70;90.90;;;;;;2086474;28;20442;-68
2024/03/02 00:21:46;;;;;;;3.10;1.90;;;9.70;90.90;;;;;;2084569;28;20021;-68
2024/03/02 00:22:46;;;;;;;3.05;1.48;;;9.70;90.90;;;;;;2083642;28;20538;-67
2024/03/02 00:23:48;;;;;;;3.60;1.73;;;9.70;91.10;;;;;;2086021;28;20028;-68
2024/03/02 00:24:49;;;;;;;2.85;1.50;;;9.70;90.90;;;;;;2085296;28;20721;-69
2024/03/02 00:25:54;;;;;;;2.00;1.90;;;9.70;90.90;;;;;;2087452;28;20049;-67
2024/03/02 00:26:55;;;;;;;2.08;1.70;;;9.70;91.00;;;;;;2083115;28;20021;-68
2024/03/02 00:27:55;;;;;;;2.35;1.85;;;9.70;91.00;;;;;;2084505;28;20028;-67
2024/03/02 00:29:00;;;;;;;1.55;1.45;;;9.70;90.90;;;;;;2084759;28;20122;-66
2024/03/02 00:30:20;;;;;;;2.38;1.80;;;9.80;91.00;;;;;;2083841;28;20017;-67
2024/03/02 00:31:21;;;;;;;1.70;1.60;;;9.70;90.90;;;;;;2082695;28;20155;-67
2024/03/02 00:32:21;;;;;;;1.63;1.42;;;9.70;90.90;;;;;;2086600;28;20029;-68
2024/03/02 00:33:23;;;;;;;1.70;1.60;;;9.70;90.90;;;;;;2084178;28;20032;-67
2024/03/02 00:34:24;;;;;;;2.50;1.75;;;9.70;90.90;;;;;;2083021;28;20025;-65
2024/03/02 00:35:25;;;;;;;1.83;1.63;;;9.70;91.00;;;;;;2085867;28;20017;-68
2024/03/02 00:36:29;;;;;;;1.60;1.50;;;9.70;91.00;;;;;;2086409;28;20482;-69
2024/03/02 00:37:30;;;;;;;2.67;1.63;;;9.70;91.00;;;;;;2085154;28;20036;-69
2024/03/02 00:38:32;;;;;;;3.05;1.50;;;9.70;91.10;;;;;;2084771;28;20036;-67
2024/03/02 00:39:32;;;;;;;1.48;1.38;;;9.70;91.00;;;;;;2085439;28;20033;-67
2024/03/02 00:40:33;;;;;;;2.65;1.75;;;9.70;91.00;;;;;;2077636;28;20028;-67
2024/03/02 00:41:35;;;;;;;2.80;1.52;;;9.70;91.00;;;;;;2076026;28;20121;-68
2024/03/02 00:42:36;;;;;;;2.13;1.50;;;9.70;91.00;;;;;;2085482;28;20022;-69
2024/03/02 00:43:45;;;;;;;2.60;1.50;;;9.70;91.00;;;;;;2084439;28;20021;-67
2024/03/02 00:44:47;;;;;;;2.25;1.17;;;9.70;91.10;;;;;;2077147;28;20035;-69
2024/03/02 00:45:48;;;;;;;2.78;1.38;;;9.70;91.00;;;;;;2076744;28;20085;-68
2024/03/02 00:46:48;;;;;;;2.30;1.65;;;9.70;90.90;;;;;;2084046;28;20095;-67
2024/03/02 00:47:49;;;;;;;4.25;1.80;;;9.70;91.00;;;;;;2085520;28;20488;-67
2024/03/02 00:48:56;;;;;;;3.72;1.92;;;9.70;91.00;;;;;;2083451;28;20029;-66
2024/03/02 00:49:57;;;;;;;1.60;1.50;;;9.70;91.00;;;;;;2083758;28;20454;-68
2024/03/02 00:50:57;;;;;;;1.85;1.67;;;9.70;91.00;;;;;;2086725;28;20033;-66
2024/03/02 00:51:59;;;;;;;2.25;1.98;;;9.70;91.00;;;;;;2085389;28;20446;-67
2024/03/02 00:53:00;;;;;;;2.20;1.70;;;9.70;91.00;;;;;;2084422;28;20045;-66
2024/03/02 00:54:03;;;;;;;2.38;1.58;;;9.70;91.10;;;;;;2084585;28;20032;-68
2024/03/02 00:55:07;;;;;;;2.03;1.50;;;9.70;91.00;;;;;;2085367;28;20171;-67
2024/03/02 00:56:12;;;;;;;3.95;1.88;;;9.70;91.10;;;;;;2084030;28;20079;-67
2024/03/02 00:57:19;;;;;;;2.63;1.35;;;9.70;91.10;;;;;;2084756;28;20033;-68
2024/03/02 00:58:20;;;;;;;1.83;1.45;;;9.70;91.10;;;;;;2083020;28;20026;-66
2024/03/02 00:59:21;;;;;;;1.67;1.35;;;9.70;91.10;;;;;;2084428;28;20463;-67
2024/03/02 01:00:21;;;;;;;3.38;1.40;;;9.60;91.10;;;;;;2085339;28;20021;-67
2024/03/02 01:01:25;;;;;;;1.95;1.73;;;9.70;91.10;;;;;;2085732;28;20060;-67
2024/03/02 01:02:26;;;;;;;1.77;1.50;;;9.70;91.10;;;;;;2082683;28;20462;-66
2024/03/02 01:03:27;;;;;;;2.03;1.35;;;9.70;91.00;;;;;;2087141;28;20026;-68
2024/03/02 01:04:28;;;;;;;2.10;1.40;;;9.70;91.10;;;;;;2084881;28;20108;-66
2024/03/02 01:05:28;;;;;;;1.70;1.52;;;9.70;91.10;;;;;;2084346;28;20048;-68
2024/03/02 01:06:29;;;;;;;2.67;1.30;;;9.70;91.00;;;;;;2085306;28;20025;-67
2024/03/02 01:07:30;;;;;;;1.30;1.20;;;9.70;91.00;;;;;;2083130;28;20575;-68
2024/03/02 01:08:31;;;;;;;2.03;1.60;;;9.70;91.00;;;;;;2084747;28;20069;-67
2024/03/02 01:09:31;;;;;;;3.08;1.73;;;9.70;91.00;;;;;;2084708;28;20573;-67
2024/03/02 01:10:32;;;;;;;1.40;1.30;;;9.70;91.00;;;;;;2076987;28;20030;-66
2024/03/02 01:11:32;;;;;;;2.10;1.20;;;9.70;91.00;;;;;;2074858;28;20459;-66
2024/03/02 01:12:33;;;;;;;2.53;1.48;;;9.70;91.00;;;;;;2084834;28;20033;-67
2024/03/02 01:13:34;;;;;;;1.42;1.25;;;9.70;91.10;;;;;;2084536;28;20029;-67
2024/03/02 01:14:35;;;;;;;2.92;1.52;;;9.60;91.10;;;;;;2084340;28;20083;-68
2024/03/02 01:15:35;;;;;;;2.38;1.40;;;9.70;91.10;;;;;;2083017;28;20323;-67
2024/03/02 01:16:36;;;;;;;2.67;1.88;;;9.60;91.10;;;;;;2082823;28;20039;-66
2024/03/02 01:17:36;;;;;;;2.63;1.20;;;9.70;91.10;;;;;;2083409;28;20048;-66
2024/03/02 01:18:37;;;;;;;2.38;1.50;;;9.60;91.10;;;;;;2086453;28;20084;-67
2024/03/02 01:19:39;;;;;;;2.53;1.50;;;9.60;91.10;;;;;;2086383;28;20462;-66
2024/03/02 01:20:42;;;;;;;2.08;1.45;;;9.60;91.10;;;;;;2085404;28;20037;-67
2024/03/02 01:21:43;;;;;;;2.10;1.50;;;9.60;91.10;;;;;;2085988;28;20025;-67
2024/03/02 01:22:43;;;;;;;2.28;1.30;;;9.60;91.10;;;;;;2082053;28;20021;-69
2024/03/02 01:23:44;;;;;;;1.35;1.25;;;9.60;91.00;;;;;;2084539;28;20063;-69
2024/03/02 01:24:45;;;;;;;2.28;1.60;;;9.60;91.10;;;;;;2085113;28;20029;-69
2024/03/02 01:25:50;;;;;;;2.47;1.70;;;9.60;91.10;;;;;;2085246;28;20904;-67
2024/03/02 01:26:50;;;;;;;1.90;1.30;;;9.60;91.00;;;;;;2083857;28;20037;-67
2024/03/02 01:27:51;;;;;;;1.85;1.40;;;9.60;91.10;;;;;;2085859;28;20067;-69
2024/03/02 01:28:52;;;;;;;2.85;1.38;;;9.60;91.10;;;;;;2087022;28;20033;-69
2024/03/02 01:29:54;;;;;;;1.50;1.20;;;9.70;91.10;;;;;;2087338;28;20017;-67
2024/03/02 01:30:54;;;;;;;1.30;1.20;;;9.60;91.10;;;;;;2085252;28;20270;-67
2024/03/02 01:31:57;;;;;;;1.52;1.42;;;9.60;91.00;;;;;;2078874;28;20041;-68
2024/03/02 01:33:02;;;;;;;2.88;1.40;;;9.60;91.10;;;;;;2076983;28;20045;-68
2024/03/02 01:34:02;;;;;;;2.05;1.33;;;9.60;91.10;;;;;;2083971;28;20025;-67
2024/03/02 01:35:03;;;;;;;2.47;1.35;;;9.60;91.00;;;;;;2086768;28;20025;-67
2024/03/02 01:36:04;;;;;;;1.40;1.20;;;9.60;91.10;;;;;;2083233;28;20485;-68
2024/03/02 01:37:05;;;;;;;1.52;1.23;;;9.60;91.10;;;;;;2083715;28;20401;-67
2024/03/02 01:38:08;;;;;;;1.80;1.38;;;9.60;91.10;;;;;;2084250;28;20017;-68
2024/03/02 01:39:09;;;;;;;1.42;1.00;;;9.60;91.10;;;;;;2085658;28;20025;-67
2024/03/02 01:40:11;;;;;;;1.75;1.40;;;9.60;91.20;;;;;;2076522;28;20029;-68
2024/03/02 01:41:11;;;;;;;3.15;1.67;;;9.60;91.20;;;;;;2076311;28;20025;-67
2024/03/02 01:42:12;;;;;;;4.18;1.45;;;9.60;91.20;;;;;;2085064;28;20037;-68
2024/03/02 01:43:12;;;;;;;2.22;1.65;;;9.60;91.20;;;;;;2077692;28;20025;-67
2024/03/02 01:44:13;;;;;;;1.83;1.20;;;9.60;91.20;;;;;;2078851;28;20108;-68
2024/03/02 01:45:14;;;;;;;1.90;1.38;;;9.60;91.20;;;;;;2081436;28;20474;-67
2024/03/02 01:46:14;;;;;;;2.35;1.40;;;9.60;91.20;;;;;;2084550;28;20404;-68
2024/03/02 01:47:15;;;;;;;3.17;1.20;;;9.60;91.20;;;;;;2084240;28;20465;-68
2024/03/02 01:48:15;;;;;;;1.88;1.20;;;9.60;91.30;;;;;;2083163;28;20087;-68
2024/03/02 01:49:18;;;;;;;2.33;1.50;;;9.60;91.20;;;;;;2086751;28;20037;-68
2024/03/02 01:50:33;;;;;;;1.20;1.10;;;9.70;91.30;;;;;;2083702;28;20017;-68
2024/03/02 01:51:33;;;;;;;1.42;1.13;;;9.70;91.30;;;;;;2077827;28;20081;-68
2024/03/02 01:52:34;;;;;;;1.52;1.10;;;9.70;91.20;;;;;;2076923;28;20037;-67
2024/03/02 01:53:35;;;;;;;3.90;1.52;;;9.70;91.20;;;;;;2076613;28;20021;-67
2024/03/02 01:54:36;;;;;;;1.67;1.30;;;9.70;91.10;;;;;;2077134;28;20036;-67
2024/03/02 01:55:36;;;;;;;2.17;1.20;;;9.70;91.10;;;;;;2087302;28;20021;-68
2024/03/02 01:56:37;;;;;;;2.00;1.10;;;9.70;91.10;;;;;;2084066;28;20478;-68
2024/03/02 01:57:38;;;;;;;1.38;1.10;;;9.70;91.00;;;;;;2084305;28;20016;-67
2024/03/02 01:58:38;;;;;;;1.95;1.50;;;9.70;91.00;;;;;;2084517;28;20025;-67
2024/03/02 01:59:39;;;;;;;1.95;1.15;;;9.70;91.00;;;;;;2084349;28;20048;-68
2024/03/02 02:00:39;;;;;;;2.60;1.55;;;9.70;91.30;;;;;;2085234;28;20466;-68
2024/03/02 02:01:40;;;;;;;3.22;1.38;;;9.70;91.00;;;;;;2085742;28;20029;-68
2024/03/02 02:02:41;;;;;;;1.10;1.00;;;9.70;90.90;;;;;;2076855;28;20072;-68
2024/03/02 02:03:43;;;;;;;1.88;1.10;;;9.70;90.80;;;;;;2075522;28;20042;-67
2024/03/02 02:04:44;;;;;;;2.58;1.30;;;9.70;90.80;;;;;;2086594;28;20105;-68
2024/03/02 02:05:45;;;;;;;1.42;1.23;;;9.70;90.80;;;;;;2086205;28;20024;-68
2024/03/02 02:06:49;;;;;;;1.73;1.30;;;9.70;90.80;;;;;;2083641;28;20024;-68
2024/03/02 02:07:50;;;;;;;1.33;1.13;;;9.70;90.80;;;;;;2084746;28;20029;-67
2024/03/02 02:08:50;;;;;;;2.90;1.38;;;9.70;90.80;;;;;;2084301;28;20064;-68
2024/03/02 02:09:54;;;;;;;0.98;0.98;;;9.70;90.70;;;;;;2084707;28;20025;-68
2024/03/02 02:10:57;;;;;;;2.10;1.30;;;9.70;90.70;;;;;;2082367;28;20021;-68
2024/03/02 02:12:02;;;;;;;1.35;1.20;;;9.70;90.80;;;;;;2083205;28;20037;-68
2024/03/02 02:13:03;;;;;;;1.67;1.40;;;9.70;90.80;;;;;;2084090;28;20041;-67
2024/03/02 02:14:04;;;;;;;1.60;1.25;;;9.70;90.80;;;;;;2085126;28;20031;-68
2024/03/02 02:15:26;;;;;;;1.75;1.42;;;9.70;90.70;;;;;;2082262;28;20028;-67
2024/03/02 02:16:27;;;;;;;2.25;1.35;;;9.70;90.70;;;;;;2083933;28;20670;-67
2024/03/02 02:17:27;;;;;;;2.90;1.52;;;9.60;90.70;;;;;;2084608;28;20405;-68
2024/03/02 02:18:30;;;;;;;1.77;1.30;;;9.60;90.70;;;;;;2084566;28;20021;-67
2024/03/02 02:19:31;;;;;;;2.13;1.30;;;9.60;90.70;;;;;;2083711;28;20079;-67
2024/03/02 02:20:32;;;;;;;2.10;1.27;;;9.60;91.00;;;;;;2084953;28;20021;-68
2024/03/02 02:21:32;;;;;;;2.25;0.95;;;9.60;90.70;;;;;;2085079;28;20044;-68
2024/03/02 02:22:33;;;;;;;2.65;1.10;;;9.60;90.70;;;;;;2084009;28;20056;-68
2024/03/02 02:23:33;;;;;;;2.45;1.58;;;9.70;90.70;;;;;;2084910;28;20732;-68
2024/03/02 02:24:34;;;;;;;1.80;1.30;;;9.60;90.70;;;;;;2086568;28;20051;-68
2024/03/02 02:25:35;;;;;;;0.95;0.95;;;9.60;90.70;;;;;;2086524;28;20153;-68
2024/03/02 02:26:35;;;;;;;2.63;1.48;;;9.60;90.70;;;;;;2085904;28;20034;-68
2024/03/02 02:27:36;;;;;;;2.17;1.27;;;9.60;90.70;;;;;;2085648;28;20025;-68
2024/03/02 02:28:36;;;;;;;2.00;1.40;;;9.60;90.70;;;;;;2086380;28;20033;-68
2024/03/02 02:29:37;;;;;;;3.35;1.20;;;9.60;90.60;;;;;;2084113;28;20066;-67
2024/03/02 02:30:38;;;;;;;2.10;1.40;;;9.60;90.70;;;;;;2084655;28;20489;-68
2024/03/02 02:31:40;;;;;;;1.85;1.30;;;9.60;90.60;;;;;;2084805;28;20028;-67
2024/03/02 02:32:43;;;;;;;2.03;1.20;;;9.60;90.60;;;;;;2083197;28;20040;-68
2024/03/02 02:33:44;;;;;;;2.92;1.40;;;9.60;90.60;;;;;;2085096;28;20045;-68
2024/03/02 02:34:44;;;;;;;1.67;1.45;;;9.60;90.60;;;;;;2084635;28;20038;-68
2024/03/02 02:35:45;;;;;;;1.85;1.20;;;9.60;90.70;;;;;;2085497;28;20139;-68
2024/03/02 02:36:48;;;;;;;1.27;1.17;;;9.60;90.60;;;;;;2082872;28;20029;-67
2024/03/02 02:37:50;;;;;;;2.83;1.30;;;9.60;90.70;;;;;;2085969;28;20075;-68
2024/03/02 02:38:51;;;;;;;2.13;1.30;;;9.60;90.70;;;;;;2083880;28;20079;-68
2024/03/02 02:39:57;;;;;;;1.55;1.00;;;9.60;90.70;;;;;;2084001;28;20037;-68
2024/03/02 02:40:58;;;;;;;2.13;1.20;;;9.60;90.70;;;;;;2084064;28;20033;-67
2024/03/02 02:42:00;;;;;;;1.52;1.15;;;9.60;90.70;;;;;;2083971;28;20109;-68
2024/03/02 02:43:03;;;;;;;1.20;1.10;;;9.60;90.70;;;;;;2083172;28;20075;-69
2024/03/02 02:44:07;;;;;;;1.25;1.00;;;9.60;90.70;;;;;;2082426;28;20029;-69
2024/03/02 02:45:08;;;;;;;2.10;1.20;;;9.60;90.80;;;;;;2084760;28;20029;-68
2024/03/02 02:46:09;;;;;;;2.53;1.15;;;9.60;90.80;;;;;;2086481;28;20100;-68
2024/03/02 02:47:12;;;;;;;1.50;1.00;;;9.60;90.80;;;;;;2084075;28;20027;-68
2024/03/02 02:48:12;;;;;;;3.97;1.05;;;9.60;90.80;;;;;;2084497;28;20468;-68
2024/03/02 02:49:13;;;;;;;2.65;1.10;;;9.60;90.80;;;;;;2080176;28;20063;-68
2024/03/02 02:50:14;;;;;;;1.25;1.00;;;9.70;90.90;;;;;;2079817;28;20056;-68
2024/03/02 02:51:14;;;;;;;2.75;1.73;;;9.70;90.80;;;;;;2067731;28;20554;-68
2024/03/02 02:52:15;;;;;;;1.17;1.08;;;9.70;90.80;;;;;;2066998;28;20026;-69
2024/03/02 02:53:16;;;;;;;2.00;1.20;;;9.70;90.80;;;;;;2076411;28;20022;-68
2024/03/02 02:54:16;;;;;;;3.75;1.40;;;9.70;90.80;;;;;;2078657;28;20101;-69
2024/03/02 02:55:17;;;;;;;1.85;1.10;;;9.70;91.10;;;;;;2085678;28;20103;-68
2024/03/02 02:56:17;;;;;;;1.45;1.10;;;9.70;90.80;;;;;;2083628;28;20029;-68
2024/03/02 02:57:18;;;;;;;1.75;1.25;;;9.70;90.80;;;;;;2082400;28;20033;-68
2024/03/02 02:58:19;;;;;;;2.13;1.60;;;9.70;90.70;;;;;;2083678;28;20022;-67
2024/03/02 02:59:20;;;;;;;1.10;1.00;;;9.70;90.70;;;;;;2083884;28;20014;-67
2024/03/02 03:00:22;;;;;;;2.38;1.30;;;9.70;90.70;;;;;;2083647;28;20442;-68
2024/03/02 03:01:25;;;;;;;1.52;1.00;;;9.70;90.80;;;;;;2084414;28;20040;-68
2024/03/02 03:02:28;;;;;;;1.30;1.15;;;9.70;90.70;;;;;;2076636;28;20021;-68
2024/03/02 03:03:28;;;;;;;3.20;1.48;;;9.70;90.70;;;;;;2079322;28;20040;-68
2024/03/02 03:04:29;;;;;;;2.33;1.23;;;9.70;90.70;;;;;;2080025;28;20026;-68
2024/03/02 03:05:30;;;;;;;5.30;1.30;;;9.70;90.80;;;;;;2078407;28;20570;-68
2024/03/02 03:06:30;;;;;;;2.67;1.17;;;9.70;90.80;;;;;;2084694;28;20026;-67
2024/03/02 03:07:31;;;;;;;2.45;1.20;;;9.70;90.80;;;;;;2076189;28;20901;-67
2024/03/02 03:08:32;;;;;;;2.35;1.02;;;9.70;90.70;;;;;;2076450;28;20057;-68
2024/03/02 03:09:32;;;;;;;1.27;1.02;;;9.70;90.70;;;;;;2078630;28;20121;-68
2024/03/02 03:10:33;;;;;;;1.63;1.23;;;9.70;90.70;;;;;;2076386;28;20053;-67
2024/03/02 03:11:33;;;;;;;2.20;1.23;;;9.70;90.70;;;;;;2084098;28;20748;-67
2024/03/02 03:12:35;;;;;;;1.98;1.08;;;9.70;90.60;;;;;;2083554;28;20106;-68
2024/03/02 03:13:36;;;;;;;1.45;0.90;;;9.70;90.60;;;;;;2073121;28;20130;-69
2024/03/02 03:14:36;;;;;;;2.47;1.20;;;9.70;90.60;;;;;;2075652;28;20029;-67
2024/03/02 03:15:41;;;;;;;2.13;1.10;;;9.70;90.60;;;;;;2083313;28;20018;-68
2024/03/02 03:16:46;;;;;;;2.38;1.30;;;9.80;90.60;;;;;;2084306;28;20032;-68
2024/03/02 03:17:55;;;;;;;1.52;0.95;;;9.80;90.60;;;;;;2082665;28;20034;-69
2024/03/02 03:18:58;;;;;;;2.00;1.27;;;9.70;90.60;;;;;;2082882;28;20096;-67
2024/03/02 03:20:00;;;;;;;2.20;1.00;;;9.70;90.60;;;;;;2084947;28;20041;-68
2024/03/02 03:21:01;;;;;;;3.10;1.08;;;9.70;90.60;;;;;;2078660;28;20109;-68
2024/03/02 03:22:03;;;;;;;1.33;1.10;;;9.70;90.60;;;;;;2075786;28;20022;-68
2024/03/02 03:23:04;;;;;;;1.15;1.05;;;9.70;90.60;;;;;;2060586;28;20042;-68
2024/03/02 03:24:05;;;;;;;2.05;1.20;;;9.70;90.60;;;;;;2052595;28;20086;-67
2024/03/02 03:25:07;;;;;;;2.50;1.05;;;9.80;90.60;;;;;;2060183;28;20034;-68
2024/03/02 03:26:08;;;;;;;1.67;1.23;;;9.80;90.50;;;;;;2066070;28;20058;-68
2024/03/02 03:27:11;;;;;;;2.85;1.13;;;9.80;90.60;;;;;;2066697;28;20033;-69
2024/03/02 03:28:12;;;;;;;1.88;1.00;;;9.80;90.60;;;;;;2068120;28;20034;-68
2024/03/02 03:29:30;;;;;;;2.60;1.13;;;9.80;90.60;;;;;;2067157;28;20077;-69
2024/03/02 03:30:31;;;;;;;1.48;0.80;;;9.80;90.60;;;;;;2065608;28;20030;-68
2024/03/02 03:31:31;;;;;;;1.35;1.00;;;9.70;90.50;;;;;;2070973;28;20030;-68
2024/03/02 03:32:32;;;;;;;1.15;0.82;;;9.70;90.50;;;;;;2068569;28;21885;-67
2024/03/02 03:33:32;;;;;;;1.95;0.90;;;9.80;90.50;;;;;;2059057;28;20031;-68
2024/03/02 03:34:33;;;;;;;3.40;1.33;;;9.80;90.70;;;;;;2059738;28;20022;-68
2024/03/02 03:35:37;;;;;;;1.25;1.00;;;9.80;90.70;;;;;;2068779;28;20030;-68
2024/03/02 03:36:41;;;;;;;2.75;1.40;;;9.80;90.70;;;;;;2068041;28;20460;-67
2024/03/02 03:37:42;;;;;;;2.10;1.00;;;9.80;90.60;;;;;;2055751;28;20054;-67
2024/03/02 03:38:48;;;;;;;1.50;1.10;;;9.80;90.60;;;;;;2056053;28;20034;-68
2024/03/02 03:39:51;;;;;;;2.38;1.38;;;9.80;90.60;;;;;;2070449;28;20037;-66
2024/03/02 03:40:52;;;;;;;1.17;0.95;;;9.80;90.70;;;;;;2068219;28;20030;-66
2024/03/02 03:41:52;;;;;;;0.80;0.77;;;9.80;90.70;;;;;;2070290;28;20053;-66
2024/03/02 03:42:53;;;;;;;1.90;1.10;;;9.80;90.70;;;;;;2059960;28;20141;-66
2024/03/02 03:43:54;;;;;;;1.80;1.10;;;9.80;90.70;;;;;;2061202;28;20065;-67
2024/03/02 03:44:55;;;;;;;1.95;0.98;;;9.80;90.60;;;;;;2069843;28;20022;-67
2024/03/02 03:45:56;;;;;;;2.08;1.10;;;9.80;90.50;;;;;;2070031;28;20168;-67
2024/03/02 03:46:57;;;;;;;2.45;1.15;;;9.90;90.50;;;;;;2070768;28;20030;-68
2024/03/02 03:48:01;;;;;;;1.77;0.90;;;9.90;90.40;;;;;;2068362;28;20030;-67
2024/03/02 03:49:04;;;;;;;1.95;0.93;;;9.90;90.40;;;;;;2066596;28;20084;-68
2024/03/02 03:50:07;;;;;;;2.05;1.10;;;9.90;90.40;;;;;;2069130;28;20446;-68
2024/03/02 03:51:07;;;;;;;1.00;0.90;;;9.90;90.40;;;;;;2068540;28;20391;-67
2024/03/02 03:52:08;;;;;;;1.33;1.00;;;9.90;90.40;;;;;;2070887;28;20057;-67
2024/03/02 03:53:08;;;;;;;1.10;0.98;;;9.90;90.40;;;;;;2071001;28;20030;-67
2024/03/02 03:54:11;;;;;;;1.90;0.93;;;9.90;90.40;;;;;;2069332;28;20895;-67
2024/03/02 03:55:14;;;;;;;1.67;0.90;;;9.90;90.30;;;;;;2070283;28;20018;-67
2024/03/02 03:56:15;;;;;;;2.08;1.10;;;9.90;90.30;;;;;;2069855;28;20108;-67
2024/03/02 03:57:16;;;;;;;1.80;1.10;;;10.00;90.30;;;;;;2069691;28;20479;-67
2024/03/02 03:58:18;;;;;;;1.80;1.02;;;10.00;90.30;;;;;;2067562;28;20069;-69
2024/03/02 03:59:19;;;;;;;1.83;1.10;;;10.00;90.30;;;;;;2070837;28;20017;-67
2024/03/02 04:00:20;;;;;;;2.45;1.02;;;10.00;90.30;;;;;;2068452;28;20384;-66
2024/03/02 04:01:26;;;;;;;1.77;1.23;;;10.00;90.30;;;;;;2068589;28;20026;-67
2024/03/02 04:02:26;;;;;;;2.42;1.17;;;10.00;90.30;;;;;;2069371;28;20483;-67
2024/03/02 04:03:27;;;;;;;1.92;1.00;;;10.00;90.20;;;;;;2070156;28;20453;-67
2024/03/02 04:04:27;;;;;;;1.17;0.90;;;10.00;90.20;;;;;;2067868;28;20030;-67
2024/03/02 04:05:28;;;;;;;1.45;1.00;;;10.00;90.20;;;;;;2067844;28;20101;-67
2024/03/02 04:06:29;;;;;;;1.77;1.10;;;10.00;90.10;;;;;;2067988;28;20108;-67
2024/03/02 04:07:30;;;;;;;2.30;1.05;;;10.00;90.20;;;;;;2067361;28;20028;-70
2024/03/02 04:08:30;;;;;;;2.33;1.10;;;10.00;90.20;;;;;;2069976;28;20030;-69
2024/03/02 04:09:31;;;;;;;2.38;1.00;;;10.00;90.10;;;;;;2071373;28;20037;-70
2024/03/02 04:10:31;;;;;;;1.92;1.10;;;10.00;90.10;;;;;;2069414;28;20057;-67
2024/03/02 04:11:32;;;;;;;1.73;0.90;;;10.00;90.20;;;;;;2069911;28;20019;-66
2024/03/02 04:12:32;;;;;;;2.83;1.10;;;10.00;90.20;;;;;;2068585;28;20374;-67
2024/03/02 04:13:33;;;;;;;4.10;1.45;;;10.00;90.10;;;;;;2070117;28;20109;-67
2024/03/02 04:14:34;;;;;;;1.90;1.00;;;10.00;90.20;;;;;;2068931;28;20030;-67
2024/03/02 04:15:34;;;;;;;1.48;0.90;;;10.00;90.20;;;;;;2067802;28;20030;-67
2024/03/02 04:16:35;;;;;;;1.90;1.10;;;10.00;90.20;;;;;;2069686;28;20149;-67
2024/03/02 04:17:36;;;;;;;1.60;1.20;;;10.00;90.30;;;;;;2067620;28;20061;-69
2024/03/02 04:18:38;;;;;;;2.40;0.98;;;10.00;90.20;;;;;;2068402;28;20018;-68
2024/03/02 04:19:38;;;;;;;1.63;1.13;;;10.00;90.20;;;;;;2063982;28;20034;-67
2024/03/02 04:20:39;;;;;;;2.85;1.08;;;10.00;90.30;;;;;;2063034;28;20046;-67
2024/03/02 04:21:39;;;;;;;2.17;1.10;;;10.00;90.30;;;;;;2067819;28;20038;-68
2024/03/02 04:22:40;;;;;;;1.85;1.23;;;10.00;90.40;;;;;;2070077;28;20037;-69
2024/03/02 04:23:40;;;;;;;2.45;1.20;;;10.00;90.40;;;;;;2067117;28;20184;-67
2024/03/02 04:24:41;;;;;;;1.15;0.90;;;10.00;90.40;;;;;;2062103;28;20067;-67
2024/03/02 04:25:42;;;;;;;1.85;1.23;;;10.00;90.40;;;;;;2063354;28;20027;-67
2024/03/02 04:26:42;;;;;;;2.80;1.20;;;10.00;90.50;;;;;;2069002;28;20021;-67
2024/03/02 04:27:43;;;;;;;1.58;0.90;;;9.90;90.40;;;;;;2069396;28;20049;-67
2024/03/02 04:28:43;;;;;;;3.92;1.17;;;9.90;90.40;;;;;;2070273;28;20107;-68
2024/03/02 04:29:44;;;;;;;1.48;1.00;;;9.90;90.50;;;;;;2069200;28;20076;-66
2024/03/02 04:30:48;;;;;;;2.80;1.25;;;9.90;90.50;;;;;;2069434;28;20073;-68
2024/03/02 04:31:48;;;;;;;1.88;1.13;;;9.90;90.50;;;;;;2067498;28;20386;-66
2024/03/02 04:32:49;;;;;;;1.45;1.08;;;9.90;90.50;;;;;;2068665;28;20058;-67
2024/03/02 04:33:50;;;;;;;1.83;1.13;;;9.90;90.50;;;;;;2067584;28;20106;-68
2024/03/02 04:34:50;;;;;;;3.13;0.98;;;10.00;90.50;;;;;;2068506;28;20050;-67
2024/03/02 04:35:51;;;;;;;1.80;1.10;;;10.00;90.50;;;;;;2069487;28;20574;-68
2024/03/02 04:36:51;;;;;;;2.28;1.38;;;9.90;90.40;;;;;;2068191;28;20491;-67
2024/03/02 04:37:52;;;;;;;2.13;1.00;;;9.90;90.50;;;;;;2070430;28;20041;-67
2024/03/02 04:38:55;;;;;;;1.50;1.00;;;9.90;90.50;;;;;;2067574;28;20117;-67
2024/03/02 04:39:56;;;;;;;1.63;1.10;;;9.90;90.50;;;;;;2068395;28;20032;-66
2024/03/02 04:40:56;;;;;;;1.38;0.75;;;9.90;90.50;;;;;;2067201;28;20030;-69
2024/03/02 04:41:58;;;;;;;2.35;1.20;;;9.90;90.50;;;;;;2062936;28;20037;-68
2024/03/02 04:42:59;;;;;;;1.20;0.90;;;9.90;90.60;;;;;;2063021;28;20125;-69
2024/03/02 04:43:59;;;;;;;0.90;0.90;;;9.90;90.50;;;;;;2067257;28;20690;-68
2024/03/02 04:45:00;;;;;;;1.90;1.10;;;9.90;90.50;;;;;;2060872;28;20038;-68
2024/03/02 04:46:01;;;;;;;2.17;1.10;;;9.90;90.60;;;;;;2052993;28;20035;-68
2024/03/02 04:47:02;;;;;;;1.70;0.80;;;9.90;90.50;;;;;;2060318;28;20040;-67
2024/03/02 04:48:03;;;;;;;1.58;1.35;;;9.90;90.50;;;;;;2067693;28;20030;-67
2024/03/02 04:49:04;;;;;;;1.45;0.90;;;9.90;90.60;;;;;;2068483;28;20034;-67
2024/03/02 04:50:05;;;;;;;5.07;1.50;;;9.90;90.50;;;;;;2067698;28;20040;-67
2024/03/02 04:51:06;;;;;;;1.95;1.00;;;9.90;90.50;;;;;;2063812;28;20066;-68
2024/03/02 04:52:06;;;;;;;1.35;1.05;;;9.90;90.50;;;;;;2062533;28;20027;-68
2024/03/02 04:53:07;;;;;;;1.30;1.10;;;9.90;90.60;;;;;;2068747;28;20041;-67
2024/03/02 04:54:08;;;;;;;3.90;1.63;;;9.90;90.50;;;;;;2066529;28;20459;-68
2024/03/02 04:56:49;;;;;;;1.50;1.05;;;9.90;90.60;;;;;;2070869;28;20033;-68
2024/03/02 04:57:50;;;;;;;1.17;0.80;;;9.90;90.60;;;;;;2069861;28;20026;-68
2024/03/02 04:58:51;;;;;;;2.95;1.35;;;9.80;90.60;;;;;;2068417;28;20030;-68
2024/03/02 04:59:51;;;;;;;2.05;1.05;;;9.80;90.60;;;;;;2067011;28;20105;-69
2024/03/02 05:00:52;;;;;;;2.38;1.08;;;9.80;90.60;;;;;;2069936;28;20025;-68
2024/03/02 05:01:52;;;;;;;2.47;1.00;;;9.80;90.60;;;;;;2067162;28;20474;-68
2024/03/02 05:02:53;;;;;;;2.13;1.15;;;9.80;90.60;;;;;;2068865;28;20433;-67
2024/03/02 05:03:53;;;;;;;1.05;0.80;;;9.80;90.50;;;;;;2067651;28;20115;-68
2024/03/02 05:04:54;;;;;;;1.77;1.10;;;9.80;90.60;;;;;;2068216;28;20040;-68
2024/03/02 05:05:55;;;;;;;3.50;1.42;;;9.80;90.50;;;;;;2069012;28;20033;-68
2024/03/02 05:06:57;;;;;;;1.85;1.00;;;9.80;90.50;;;;;;2068061;28;20033;-68
2024/03/02 05:07:58;;;;;;;3.80;1.40;;;9.80;90.50;;;;;;2067357;28;20033;-67
2024/03/02 05:08:58;;;;;;;2.45;0.90;;;9.80;90.50;;;;;;2068422;28;20080;-68
2024/03/02 05:09:59;;;;;;;3.22;1.23;;;9.80;90.50;;;;;;2069351;28;20093;-67
2024/03/02 05:11:29;;;;;;;2.15;1.20;;;9.80;90.50;;;;;;2069454;28;20029;-67
2024/03/02 05:13:42;;;;;;;1.88;1.00;;;9.70;90.50;;;;;;2069823;28;20043;-68
2024/03/02 05:14:43;;;;;;;2.85;1.02;;;9.70;90.50;;;;;;2069306;28;20058;-68
2024/03/02 05:15:43;;;;;;;1.38;0.98;;;9.70;90.50;;;;;;2066381;28;20034;-68
2024/03/02 05:16:47;;;;;;;1.25;1.15;;;9.70;90.50;;;;;;2065691;28;20482;-68
2024/03/02 05:17:47;;;;;;;1.67;1.00;;;9.60;90.50;;;;;;2058867;28;20037;-67
2024/03/02 05:18:48;;;;;;;2.10;1.20;;;9.60;90.60;;;;;;2061687;28;20034;-67
2024/03/02 05:19:48;;;;;;;1.40;1.20;;;9.60;90.60;;;;;;2068051;28;20024;-67
2024/03/02 05:20:49;;;;;;;1.90;1.40;;;9.60;90.60;;;;;;2067917;28;20080;-68
2024/03/02 05:21:49;;;;;;;1.13;0.90;;;9.60;90.60;;;;;;2069447;28;20491;-68
2024/03/02 05:22:56;;;;;;;1.67;1.00;;;9.60;90.60;;;;;;2068068;28;20616;-67
2024/03/02 05:23:57;;;;;;;2.70;1.45;;;9.60;90.70;;;;;;2070077;28;20029;-67
2024/03/02 05:24:59;;;;;;;3.28;1.60;;;9.50;90.60;;;;;;2068311;28;20542;-67
2024/03/02 05:26:00;;;;;;;1.02;0.90;;;9.50;90.70;;;;;;2067492;28;20483;-67
2024/03/02 05:27:00;;;;;;;1.90;1.33;;;9.50;90.70;;;;;;2067560;28;20459;-67
2024/03/02 05:28:01;;;;;;;3.53;1.20;;;9.50;90.70;;;;;;2068952;28;20029;-69